createdAt,value
2019-01-04T00:00:34.962Z,15.68
2019-01-04T00:03:04.681Z,14.38
2019-01-04T00:05:33.662Z,14.40
2019-01-04T00:08:02.645Z,16.93
2019-01-04T00:10:31.650Z,16.75
2019-01-04T00:13:00.618Z,16.05
2019-01-04T00:15:29.789Z,14.87
2019-01-04T00:17:58.694Z,15.30
2019-01-04T00:20:27.770Z,14.87
2019-01-04T00:22:56.806Z,14.33
2019-01-04T00:25:25.791Z,14.45
2019-01-04T00:27:55.008Z,13.40
2019-01-04T00:30:24.010Z,13.30
2019-01-04T00:32:54.941Z,14.70
2019-01-04T00:35:24.213Z,14.53
2019-01-04T00:37:53.204Z,13.03
2019-01-04T00:40:22.433Z,12.95
2019-01-04T00:42:51.489Z,14.55
2019-01-04T00:45:20.510Z,14.38
2019-01-04T00:47:49.501Z,13.18
2019-01-04T00:50:18.729Z,12.30
2019-01-04T00:52:47.747Z,13.00
2019-01-04T00:55:59.866Z,13.40
2019-01-04T00:59:21.726Z,13.38
2019-01-04T01:02:33.715Z,13.25
2019-01-04T01:05:39.947Z,13.72
2019-01-04T01:08:42.278Z,14.70
2019-01-04T01:11:48.030Z,12.35
2019-01-04T01:15:00.211Z,13.72
2019-01-04T01:18:12.074Z,14.95
2019-01-04T01:21:24.327Z,13.90
2019-01-04T01:24:26.278Z,13.13
2019-01-04T01:27:41.268Z,13.50
2019-01-04T01:30:51.051Z,13.03
2019-01-04T01:34:19.623Z,13.78
2019-01-04T01:37:24.970Z,14.33
2019-01-04T01:40:41.051Z,13.83
2019-01-04T01:43:46.260Z,14.83
2019-01-04T01:46:44.337Z,16.12
2019-01-04T01:49:54.188Z,15.48
2019-01-04T01:52:28.316Z,13.55
2019-01-04T01:54:57.213Z,13.45
2019-01-04T01:57:26.138Z,15.83
2019-01-04T01:59:55.133Z,15.85
2019-01-04T02:02:24.153Z,15.30
2019-01-04T02:04:53.061Z,14.70
2019-01-04T02:07:21.993Z,14.75
2019-01-04T02:09:50.976Z,13.55
2019-01-04T02:12:20.127Z,13.18
2019-01-04T02:14:49.130Z,15.83
2019-01-04T02:17:18.313Z,14.80
2019-01-04T02:19:47.233Z,13.80
2019-01-04T02:22:16.121Z,14.30
2019-01-04T02:24:45.113Z,14.90
2019-01-04T02:27:14.038Z,14.58
2019-01-04T02:29:42.953Z,15.80
2019-01-04T02:32:12.000Z,13.45
2019-01-04T02:34:41.147Z,13.08
2019-01-04T02:37:10.010Z,13.08
2019-01-04T02:39:38.910Z,13.25
2019-01-04T02:42:07.848Z,12.95
2019-01-04T02:44:36.785Z,13.05
2019-01-04T02:47:06.016Z,12.70
2019-01-04T02:49:34.923Z,13.10
2019-01-04T02:52:03.954Z,14.23
2019-01-04T02:54:32.772Z,12.68
2019-01-04T02:57:01.791Z,13.40
2019-01-04T02:59:30.780Z,12.50
2019-01-04T03:01:59.642Z,14.00
2019-01-04T03:04:28.775Z,12.45
2019-01-04T03:06:57.691Z,11.95
2019-01-04T03:09:26.651Z,12.23
2019-01-04T03:11:55.602Z,11.80
2019-01-04T03:14:24.870Z,11.73
2019-01-04T03:16:53.770Z,12.65
2019-01-04T03:19:22.638Z,12.30
2019-01-04T03:21:51.918Z,12.43
2019-01-04T03:24:20.945Z,11.88
2019-01-04T03:26:49.833Z,10.15
2019-01-04T03:29:18.714Z,9.78
2019-01-04T03:31:47.679Z,10.48
2019-01-04T03:34:16.614Z,10.43
2019-01-04T03:36:45.454Z,8.83
2019-01-04T03:39:14.612Z,11.05
2019-01-04T03:41:43.538Z,10.43
2019-01-04T03:44:12.405Z,10.30
2019-01-04T03:46:41.319Z,9.75
2019-01-04T03:49:10.171Z,8.83
2019-01-04T03:51:41.138Z,10.82
2019-01-04T03:54:10.126Z,9.48
2019-01-04T03:56:39.060Z,11.18
2019-01-04T03:59:07.877Z,10.45
2019-01-04T04:01:36.796Z,11.28
2019-01-04T04:04:05.707Z,10.68
2019-01-04T04:06:35.051Z,11.60
2019-01-04T04:09:05.702Z,12.73
2019-01-04T04:11:34.896Z,10.50
2019-01-04T04:14:03.819Z,12.23
2019-01-04T04:16:32.681Z,11.70
2019-01-04T04:19:01.674Z,11.55
2019-01-04T04:21:30.614Z,11.22
2019-01-04T04:23:59.449Z,11.83
2019-01-04T04:26:28.449Z,10.98
2019-01-04T04:28:57.969Z,13.00
2019-01-04T04:31:26.908Z,12.35
2019-01-04T04:33:55.749Z,12.73
2019-01-04T04:36:24.668Z,11.88
2019-01-04T04:38:53.520Z,11.78
2019-01-04T04:41:23.001Z,13.83
2019-01-04T04:43:51.856Z,12.30
2019-01-04T04:46:21.029Z,12.88
2019-01-04T04:48:49.853Z,13.58
2019-01-04T04:51:18.694Z,13.45
2019-01-04T04:53:47.542Z,13.40
2019-01-04T04:56:16.389Z,12.88
2019-01-04T04:58:45.630Z,12.68
2019-01-04T05:01:14.497Z,13.00
2019-01-04T05:03:43.432Z,13.45
2019-01-04T05:06:12.352Z,14.38
2019-01-04T05:08:41.418Z,12.82
2019-01-04T05:11:10.659Z,14.30
2019-01-04T05:13:39.494Z,15.32
2019-01-04T05:16:08.579Z,14.75
2019-01-04T05:18:37.520Z,13.03
2019-01-04T05:21:06.954Z,13.32
2019-01-04T05:23:35.876Z,13.03
2019-01-04T05:26:04.730Z,13.80
2019-01-04T05:28:33.606Z,11.97
2019-01-04T05:31:02.692Z,13.70
2019-01-04T05:33:31.530Z,12.25
2019-01-04T05:36:00.377Z,11.53
2019-01-04T05:38:29.286Z,11.80
2019-01-04T05:40:58.097Z,11.90
2019-01-04T05:43:27.370Z,11.30
2019-01-04T05:45:56.527Z,11.70
2019-01-04T05:48:25.463Z,12.60
2019-01-04T05:50:54.293Z,13.70
2019-01-04T05:53:23.212Z,13.68
2019-01-04T05:55:52.051Z,12.88
2019-01-04T05:58:20.903Z,14.20
2019-01-04T06:00:49.898Z,13.70
2019-01-04T06:03:18.818Z,15.10
2019-01-04T06:05:47.662Z,13.98
2019-01-04T06:08:16.689Z,12.78
2019-01-04T06:10:45.607Z,12.85
2019-01-04T06:13:14.698Z,15.20
2019-01-04T06:15:43.606Z,13.03
2019-01-04T06:18:12.534Z,14.65
2019-01-04T06:20:41.475Z,14.35
2019-01-04T06:23:10.395Z,12.65
2019-01-04T06:25:39.274Z,14.68
2019-01-04T06:28:08.177Z,14.90
2019-01-04T06:30:37.227Z,15.05
2019-01-04T06:33:06.156Z,14.00
2019-01-04T06:35:35.087Z,13.40
2019-01-04T06:38:04.246Z,16.50
2019-01-04T06:40:33.269Z,14.80
2019-01-04T06:43:03.236Z,15.30
2019-01-04T06:45:32.162Z,16.52
2019-01-04T06:48:01.011Z,15.55
2019-01-04T06:50:29.862Z,14.80
2019-01-04T06:52:58.809Z,14.98
2019-01-04T06:55:48.163Z,15.20
2019-01-04T06:58:17.758Z,15.28
2019-01-04T07:00:46.718Z,15.80
2019-01-04T07:03:15.711Z,13.70
2019-01-04T07:05:44.732Z,15.90
2019-01-04T07:08:13.743Z,15.38
2019-01-04T07:10:42.662Z,13.95
2019-01-04T07:13:12.906Z,15.40
2019-01-04T07:15:41.872Z,13.60
2019-01-04T07:18:10.873Z,13.65
2019-01-04T07:20:39.872Z,13.10
2019-01-04T07:23:08.892Z,13.75
2019-01-04T07:25:37.942Z,14.75
2019-01-04T07:28:06.855Z,14.28
2019-01-04T07:30:35.985Z,13.98
2019-01-04T07:33:07.992Z,14.75
2019-01-04T07:35:37.080Z,13.72
2019-01-04T07:38:06.002Z,12.85
2019-01-04T07:40:35.037Z,14.35
2019-01-04T07:43:03.965Z,13.72
2019-01-04T07:45:32.969Z,12.50
2019-01-04T07:48:01.890Z,12.15
2019-01-04T07:50:30.817Z,13.78
2019-01-04T07:53:00.797Z,13.55
2019-01-04T07:55:29.736Z,16.48
2019-01-04T07:57:58.579Z,15.03
2019-01-04T08:00:27.582Z,14.87
2019-01-04T08:02:59.712Z,13.55
2019-01-04T08:05:29.433Z,13.58
2019-01-04T08:07:58.264Z,14.55
2019-01-04T08:10:27.111Z,14.60
2019-01-04T08:12:58.066Z,14.05
2019-01-04T08:15:27.335Z,14.45
2019-01-04T08:17:56.204Z,13.05
2019-01-04T08:20:25.130Z,14.20
2019-01-04T08:22:54.066Z,12.18
2019-01-04T08:25:23.001Z,13.55
2019-01-04T08:27:52.014Z,12.60
2019-01-04T08:30:21.587Z,13.85
2019-01-04T08:32:50.433Z,13.43
2019-01-04T08:35:19.260Z,12.30
2019-01-04T08:37:48.186Z,13.65
2019-01-04T08:40:17.085Z,12.82
2019-01-04T08:42:46.012Z,11.68
2019-01-04T08:45:16.108Z,12.93
2019-01-04T08:47:44.937Z,13.15
2019-01-04T08:50:15.230Z,12.85
2019-01-04T08:52:44.365Z,13.55
2019-01-04T08:55:22.990Z,13.45
2019-01-04T08:57:51.807Z,12.80
2019-01-04T09:00:20.698Z,12.65
2019-01-04T09:02:49.538Z,12.98
2019-01-04T09:05:18.453Z,13.93
2019-01-04T09:07:47.272Z,14.10
2019-01-04T09:10:16.277Z,12.33
2019-01-04T09:12:45.253Z,12.50
2019-01-04T09:15:14.249Z,11.93
2019-01-04T09:17:43.180Z,11.95
2019-01-04T09:20:12.191Z,12.07
2019-01-04T09:22:42.293Z,12.40
2019-01-04T09:25:11.413Z,12.47
2019-01-04T09:27:40.336Z,12.15
2019-01-04T09:30:12.183Z,12.63
2019-01-04T09:32:41.411Z,12.15
2019-01-04T09:35:10.318Z,13.05
2019-01-04T09:37:39.449Z,11.40
2019-01-04T09:40:10.598Z,12.23
2019-01-04T09:42:40.228Z,12.10
2019-01-04T09:45:10.234Z,12.03
2019-01-04T09:47:39.223Z,12.45
2019-01-04T09:50:09.471Z,10.90
2019-01-04T09:52:39.304Z,12.03
2019-01-04T09:55:08.675Z,12.53
2019-01-04T09:57:37.532Z,10.82
2019-01-04T10:00:09.869Z,10.68
2019-01-04T10:02:38.745Z,9.35
2019-01-04T10:05:08.150Z,8.53
2019-01-04T10:07:37.061Z,9.33
2019-01-04T10:10:12.517Z,8.95
2019-01-04T10:12:41.531Z,8.58
2019-01-04T10:15:12.897Z,9.20
2019-01-04T10:17:41.741Z,10.30
2019-01-04T10:20:10.729Z,8.88
2019-01-04T10:22:39.721Z,9.03
2019-01-04T10:25:08.858Z,9.03
2019-01-04T10:27:37.821Z,10.08
2019-01-04T10:30:10.481Z,9.68
2019-01-04T10:32:39.461Z,10.48
2019-01-04T10:35:10.690Z,11.38
2019-01-04T10:37:39.322Z,10.45
2019-01-04T10:40:11.223Z,9.70
2019-01-04T10:42:39.091Z,10.85
2019-01-04T10:45:08.044Z,10.93
2019-01-04T10:47:36.963Z,11.48
2019-01-04T10:50:06.209Z,9.05
2019-01-04T10:52:35.058Z,9.00
2019-01-04T10:55:04.526Z,9.40
2019-01-04T10:57:33.754Z,9.80
2019-01-04T11:00:02.604Z,11.25
2019-01-04T11:02:31.521Z,8.68
2019-01-04T11:05:00.798Z,11.10
2019-01-04T11:07:29.826Z,11.43
2019-01-04T11:09:58.815Z,9.40
2019-01-04T11:12:27.809Z,9.75
2019-01-04T11:14:56.970Z,10.25
2019-01-04T11:17:25.976Z,9.35
2019-01-04T11:19:54.949Z,9.75
2019-01-04T11:25:57.905Z,8.33
2019-01-04T11:29:09.856Z,8.28
2019-01-04T11:31:50.408Z,8.58
2019-01-04T11:34:53.506Z,8.88
2019-01-04T11:38:09.305Z,7.85
2019-01-04T11:40:54.604Z,9.28
2019-01-04T11:44:03.221Z,9.75
2019-01-04T11:46:50.068Z,9.23
2019-01-04T11:49:43.386Z,9.80
2019-01-04T11:52:31.190Z,9.08
2019-01-04T11:54:59.213Z,8.00
2019-01-04T11:57:28.153Z,10.13
2019-01-04T11:59:57.393Z,10.50
2019-01-04T12:02:26.644Z,9.70
2019-01-04T12:04:57.136Z,8.85
2019-01-04T12:07:26.037Z,8.15
2019-01-04T12:09:55.184Z,8.00
2019-01-04T12:12:25.452Z,9.20
2019-01-04T12:14:54.304Z,9.45
2019-01-04T12:17:23.159Z,9.20
2019-01-04T12:19:52.097Z,9.80
2019-01-04T12:22:20.941Z,7.97
2019-01-04T12:24:49.787Z,9.03
2019-01-04T12:27:18.785Z,8.50
2019-01-04T12:29:47.935Z,9.35
2019-01-04T12:32:16.772Z,8.25
2019-01-04T12:34:45.627Z,8.35
2019-01-04T12:37:14.832Z,7.67
2019-01-04T12:39:43.654Z,9.13
2019-01-04T12:42:13.609Z,8.15
2019-01-04T12:44:42.426Z,8.23
2019-01-04T12:47:11.729Z,8.53
2019-01-04T12:49:41.309Z,9.03
2019-01-04T12:52:10.425Z,8.70
2019-01-04T12:54:39.356Z,7.87
2019-01-04T12:57:08.190Z,10.23
2019-01-04T12:59:37.029Z,8.38
2019-01-04T13:02:05.943Z,8.85
2019-01-04T13:04:34.789Z,9.70
2019-01-04T13:07:03.805Z,9.00
2019-01-04T13:09:32.702Z,9.30
2019-01-04T13:12:01.549Z,8.80
2019-01-04T13:14:31.159Z,10.58
2019-01-04T13:16:59.994Z,9.15
2019-01-04T13:19:31.033Z,10.15
2019-01-04T13:22:00.205Z,9.48
2019-01-04T13:24:29.135Z,9.75
2019-01-04T13:26:58.036Z,10.55
2019-01-04T13:29:27.095Z,11.40
2019-01-04T13:31:55.974Z,10.60
2019-01-04T13:34:24.827Z,9.80
2019-01-04T13:36:53.690Z,9.65
2019-01-04T13:39:22.678Z,8.60
2019-01-04T13:41:51.578Z,9.20
2019-01-04T13:44:22.837Z,10.18
2019-01-04T13:46:53.241Z,9.25
2019-01-04T13:49:22.073Z,9.45
2019-01-04T13:51:51.074Z,9.95
2019-01-04T13:54:38.038Z,9.93
2019-01-04T13:57:06.949Z,10.25
2019-01-04T13:59:36.119Z,8.10
2019-01-04T14:02:05.041Z,8.90
2019-01-04T14:04:33.874Z,9.63
2019-01-04T14:07:02.894Z,9.45
2019-01-04T14:09:31.789Z,8.73
2019-01-04T14:12:00.610Z,8.43
2019-01-04T14:14:29.525Z,7.80
2019-01-04T14:16:58.469Z,10.18
2019-01-04T14:19:27.276Z,8.50
2019-01-04T14:21:56.105Z,8.68
2019-01-04T14:24:25.020Z,9.43
2019-01-04T14:26:54.148Z,9.23
2019-01-04T14:29:23.336Z,10.00
2019-01-04T14:31:52.226Z,8.70
2019-01-04T14:34:21.304Z,8.55
2019-01-04T14:36:50.525Z,9.08
2019-01-04T14:39:19.493Z,9.80
2019-01-04T14:41:48.552Z,9.50
2019-01-04T14:44:17.993Z,9.03
2019-01-04T14:46:46.809Z,9.35
2019-01-04T14:49:16.088Z,8.85
2019-01-04T14:51:45.074Z,8.55
2019-01-04T14:54:14.291Z,9.48
2019-01-04T14:56:43.361Z,8.85
2019-01-04T14:59:12.236Z,9.75
2019-01-04T15:01:41.193Z,9.25
2019-01-04T15:04:10.081Z,8.63
2019-01-04T15:06:39.082Z,8.70
2019-01-04T15:09:08.237Z,10.32
2019-01-04T15:11:37.512Z,8.05
2019-01-04T15:14:06.645Z,9.05
2019-01-04T15:16:35.566Z,10.00
2019-01-04T15:19:04.631Z,8.73
2019-01-04T15:21:33.493Z,9.13
2019-01-04T15:24:02.644Z,9.18
2019-01-04T15:26:31.620Z,8.68
2019-01-04T15:29:00.567Z,8.43
2019-01-04T15:31:29.479Z,8.50
2019-01-04T15:33:58.361Z,9.18
2019-01-04T15:36:27.361Z,8.25
2019-01-04T15:38:56.324Z,9.60
2019-01-04T15:41:25.217Z,8.25
2019-01-04T15:43:54.366Z,8.58
2019-01-04T15:46:23.353Z,7.47
2019-01-04T15:48:52.299Z,9.40
2019-01-04T15:51:21.375Z,8.73
2019-01-04T15:53:50.289Z,9.60
2019-01-04T15:56:19.194Z,9.23
2019-01-04T15:58:48.478Z,9.15
2019-01-04T16:01:17.434Z,8.58
2019-01-04T16:03:46.296Z,9.30
2019-01-04T16:06:15.178Z,9.50
2019-01-04T16:08:44.034Z,9.80
2019-01-04T16:11:13.382Z,10.25
2019-01-04T16:13:42.336Z,10.10
2019-01-04T16:16:11.270Z,9.65
2019-01-04T16:18:40.341Z,10.58
2019-01-04T16:21:09.246Z,10.05
2019-01-04T16:23:38.236Z,11.15
2019-01-04T16:26:07.091Z,10.43
2019-01-04T16:28:35.969Z,10.88
2019-01-04T16:31:04.978Z,11.93
2019-01-04T16:33:33.925Z,11.63
2019-01-04T16:36:02.779Z,11.40
2019-01-04T16:38:31.718Z,10.32
2019-01-04T16:41:19.878Z,11.35
2019-01-04T16:43:48.922Z,11.20
2019-01-04T16:46:17.851Z,13.00
2019-01-04T16:48:46.835Z,12.37
2019-01-04T16:51:15.970Z,12.50
2019-01-04T16:53:44.890Z,11.97
2019-01-04T16:56:13.829Z,13.58
2019-01-04T16:58:43.985Z,12.85
2019-01-04T17:01:13.611Z,12.30
2019-01-04T17:03:43.762Z,12.40
2019-01-04T17:06:12.763Z,12.82
2019-01-04T17:08:43.913Z,12.93
2019-01-04T17:11:13.863Z,14.30
2019-01-04T17:13:42.786Z,12.37
2019-01-04T17:16:11.759Z,12.15
2019-01-04T17:18:40.621Z,12.53
2019-01-04T17:21:09.782Z,12.85
2019-01-04T17:23:39.997Z,12.33
2019-01-04T17:26:10.022Z,13.48
2019-01-04T17:28:38.864Z,12.10
2019-01-04T17:31:07.781Z,12.07
2019-01-04T17:33:36.709Z,12.40
2019-01-04T17:36:05.638Z,13.13
2019-01-04T17:38:36.625Z,10.10
2019-01-04T17:41:05.512Z,11.10
2019-01-04T17:43:34.517Z,10.35
2019-01-04T17:46:03.504Z,11.40
2019-01-04T17:48:32.977Z,9.90
2019-01-04T17:51:01.845Z,8.68
2019-01-04T17:53:31.731Z,10.08
2019-01-04T17:56:01.665Z,7.47
2019-01-04T17:58:30.576Z,9.18
2019-01-04T18:00:59.505Z,9.43
2019-01-04T18:03:28.450Z,8.80
2019-01-04T18:05:57.365Z,9.68
2019-01-04T18:08:26.293Z,8.85
2019-01-04T18:10:55.223Z,8.93
2019-01-04T18:13:24.232Z,9.13
2019-01-04T18:15:53.206Z,8.40
2019-01-04T18:18:22.168Z,8.50
2019-01-04T18:20:51.166Z,9.15
2019-01-04T18:23:20.057Z,9.93
2019-01-04T18:25:49.234Z,9.40
2019-01-04T18:28:18.082Z,9.28
2019-01-04T18:30:47.026Z,9.10
2019-01-04T18:33:18.274Z,9.90
2019-01-04T18:35:47.297Z,9.35
2019-01-04T18:38:16.191Z,9.35
2019-01-04T18:40:45.147Z,9.75
2019-01-04T18:43:14.123Z,9.38
2019-01-04T18:45:42.954Z,10.38
2019-01-04T18:48:12.154Z,10.70
2019-01-04T18:50:42.118Z,9.55
2019-01-04T18:53:11.386Z,9.65
2019-01-04T18:55:40.406Z,9.80
2019-01-04T18:58:09.274Z,9.25
2019-01-04T19:00:38.269Z,9.60
2019-01-04T19:03:07.229Z,9.80
2019-01-04T19:05:36.178Z,9.05
2019-01-04T19:08:05.141Z,9.63
2019-01-04T19:10:34.022Z,9.55
2019-01-04T19:13:02.958Z,9.88
2019-01-04T19:15:32.159Z,11.35
2019-01-04T19:18:01.036Z,11.40
2019-01-04T19:20:30.379Z,10.98
2019-01-04T19:22:59.339Z,11.73
2019-01-04T19:25:28.342Z,12.35
2019-01-04T19:27:57.366Z,11.75
2019-01-04T19:30:26.632Z,12.55
2019-01-04T19:32:55.586Z,11.45
2019-01-04T19:35:24.517Z,12.88
2019-01-04T19:37:53.629Z,12.85
2019-01-04T19:40:22.636Z,11.95
2019-01-04T19:42:51.596Z,16.55
2019-01-04T19:45:20.566Z,13.55
2019-01-04T19:47:49.419Z,14.55
2019-01-04T19:50:22.651Z,14.68
2019-01-04T19:52:52.532Z,12.03
2019-01-04T19:55:21.602Z,13.65
2019-01-04T19:57:50.575Z,12.18
2019-01-04T20:00:19.662Z,13.00
2019-01-04T20:02:48.705Z,13.08
2019-01-04T20:05:47.528Z,13.00
2019-01-04T20:12:59.267Z,13.20
2019-01-04T20:16:14.287Z,13.85
2019-01-04T20:19:01.438Z,13.25
2019-01-04T20:21:48.289Z,12.70
2019-01-04T20:28:04.315Z,14.00
2019-01-04T20:30:53.925Z,13.35
2019-01-04T20:33:40.945Z,11.50
2019-01-04T20:36:27.946Z,12.53
2019-01-04T20:39:12.920Z,11.80
2019-01-04T20:42:00.081Z,11.90
2019-01-04T20:44:46.971Z,11.95
2019-01-04T20:47:44.547Z,13.80
2019-01-04T20:50:38.687Z,13.95
2019-01-04T20:53:20.123Z,13.40
2019-01-04T20:55:59.107Z,11.33
2019-01-04T20:58:45.974Z,11.70
2019-01-04T21:01:32.524Z,12.30
2019-01-04T21:04:23.589Z,12.98
2019-01-04T21:07:11.111Z,12.50
2019-01-04T21:09:52.207Z,12.10
2019-01-04T21:12:39.207Z,11.53
2019-01-04T21:15:27.847Z,11.45
2019-01-04T21:18:22.567Z,13.48
2019-01-04T21:21:25.641Z,13.58
2019-01-04T21:24:32.003Z,12.33
2019-01-04T21:27:28.955Z,13.00
2019-01-04T21:30:30.584Z,13.72
2019-01-04T21:33:17.479Z,11.95
2019-01-04T21:36:04.260Z,19.05
2019-01-04T21:38:51.207Z,12.98
2019-01-04T21:41:39.596Z,13.03
2019-01-04T21:44:30.618Z,12.73
2019-01-04T21:47:18.635Z,13.43
2019-01-04T21:50:06.631Z,14.30
2019-01-04T21:52:54.719Z,12.63
2019-01-04T21:55:48.880Z,13.25
2019-01-04T21:58:35.819Z,12.13
2019-01-04T22:01:38.709Z,11.73
2019-01-04T22:04:31.827Z,12.43
2019-01-04T22:07:24.853Z,13.18
2019-01-04T22:10:12.914Z,11.73
2019-01-04T22:13:06.963Z,13.58
2019-01-04T22:15:53.905Z,12.93
2019-01-04T22:18:47.743Z,12.55
2019-01-04T22:21:34.401Z,12.85
2019-01-04T22:24:23.010Z,12.85
2019-01-04T22:27:10.994Z,13.40
2019-01-04T22:30:11.488Z,12.78
2019-01-04T22:33:05.491Z,13.40
2019-01-04T22:35:52.134Z,11.85
2019-01-04T22:38:43.317Z,12.70
2019-01-04T22:41:30.006Z,12.75
2019-01-04T22:44:16.853Z,11.50
2019-01-04T22:47:14.368Z,12.40
2019-01-04T22:50:08.139Z,11.80
2019-01-04T22:52:56.959Z,12.75
2019-01-04T22:55:43.843Z,13.80
2019-01-04T22:58:34.925Z,11.68
2019-01-04T23:01:21.614Z,12.70
2019-01-04T23:04:06.087Z,12.90
2019-01-04T23:07:06.134Z,12.80
2019-01-04T23:09:52.886Z,12.35
2019-01-04T23:12:53.374Z,12.10
2019-01-04T23:15:48.065Z,12.73
2019-01-04T23:18:54.276Z,11.63
2019-01-04T23:22:09.402Z,10.65
2019-01-04T23:24:56.487Z,11.15
2019-01-04T23:27:56.835Z,11.70
2019-01-04T23:30:39.850Z,12.37
2019-01-04T23:33:45.323Z,12.10
2019-01-04T23:36:42.267Z,12.00
2019-01-04T23:39:39.266Z,13.20
2019-01-04T23:42:36.347Z,12.30
2019-01-04T23:45:33.798Z,12.23
2019-01-04T23:48:16.834Z,13.95
2019-01-04T23:51:01.948Z,13.18
2019-01-04T23:53:52.524Z,11.70
2019-01-04T23:56:39.185Z,12.50
2019-01-04T23:59:26.184Z,12.65
